createdAt,value
2023-05-20T00:00:24.955Z,11.57
2023-05-20T00:02:57.996Z,31.00
2023-05-20T00:05:30.671Z,11.57
2023-05-20T00:08:07.535Z,10.20
2023-05-20T00:10:40.249Z,15.20
2023-05-20T00:13:12.863Z,14.20
2023-05-20T00:15:45.849Z,12.02
2023-05-20T00:18:18.006Z,12.93
2023-05-20T00:20:50.726Z,12.82
2023-05-20T00:23:22.879Z,24.10
2023-05-20T00:25:55.228Z,14.25
2023-05-20T00:28:28.246Z,11.73
2023-05-20T00:31:00.436Z,13.87
2023-05-20T00:33:32.599Z,17.65
2023-05-20T00:36:05.738Z,13.57
2023-05-20T00:38:37.943Z,14.52
2023-05-20T00:41:10.795Z,12.75
2023-05-20T00:43:43.236Z,11.13
2023-05-20T00:46:15.463Z,11.32
2023-05-20T00:48:47.817Z,13.52
2023-05-20T00:51:21.166Z,10.77
2023-05-20T00:53:54.873Z,13.70
2023-05-20T00:56:27.176Z,15.02
2023-05-20T00:58:59.389Z,14.23
2023-05-20T01:01:33.160Z,12.20
2023-05-20T01:04:05.682Z,12.10
2023-05-20T01:06:40.311Z,16.10
2023-05-20T01:09:14.135Z,13.82
2023-05-20T01:11:53.440Z,11.25
2023-05-20T01:14:28.569Z,14.45
2023-05-20T01:17:09.439Z,12.90
2023-05-20T01:19:46.494Z,13.10
2023-05-20T01:22:18.746Z,13.63
2023-05-20T01:24:53.722Z,14.48
2023-05-20T01:27:25.926Z,14.18
2023-05-20T01:29:58.377Z,17.42
2023-05-20T01:32:38.544Z,16.58
2023-05-20T01:35:14.192Z,13.20
2023-05-20T01:37:49.647Z,15.60
2023-05-20T01:40:23.794Z,19.52
2023-05-20T01:42:58.571Z,18.08
2023-05-20T01:45:31.666Z,16.83
2023-05-20T01:48:05.366Z,14.45
2023-05-20T01:50:38.854Z,13.65
2023-05-20T01:53:11.016Z,15.27
2023-05-20T01:55:43.196Z,15.10
2023-05-20T01:58:15.540Z,14.85
2023-05-20T02:00:47.751Z,16.75
2023-05-20T02:03:20.025Z,16.60
2023-05-20T02:05:52.388Z,17.52
2023-05-20T02:08:24.566Z,16.17
2023-05-20T02:10:56.681Z,15.38
2023-05-20T02:13:28.844Z,15.45
2023-05-20T02:16:01.029Z,16.73
2023-05-20T02:18:35.419Z,22.17
2023-05-20T02:21:07.575Z,17.40
2023-05-20T02:23:39.832Z,20.77
2023-05-20T02:26:12.403Z,19.40
2023-05-20T02:28:46.990Z,20.90
2023-05-20T02:31:19.867Z,20.17
2023-05-20T02:33:52.128Z,23.00
2023-05-20T02:36:28.179Z,22.58
2023-05-20T02:39:01.394Z,22.25
2023-05-20T02:41:33.802Z,24.42
2023-05-20T02:44:06.725Z,23.63
2023-05-20T02:46:39.457Z,29.80
2023-05-20T02:49:12.124Z,27.47
2023-05-20T02:51:44.237Z,28.58
2023-05-20T02:54:16.392Z,24.73
2023-05-20T02:56:48.482Z,26.75
2023-05-20T02:59:20.901Z,31.20
2023-05-20T03:01:53.953Z,25.85
2023-05-20T03:04:27.366Z,27.58
2023-05-20T03:06:59.572Z,31.35
2023-05-20T03:09:31.965Z,23.73
2023-05-20T03:12:05.282Z,60.15
2023-05-20T03:14:37.751Z,25.05
2023-05-20T03:17:10.844Z,26.55
2023-05-20T03:19:43.130Z,27.17
2023-05-20T03:22:15.566Z,27.05
2023-05-20T03:24:48.389Z,27.33
2023-05-20T03:27:22.182Z,25.38
2023-05-20T03:29:59.331Z,28.77
2023-05-20T03:32:31.661Z,29.75
2023-05-20T03:35:04.294Z,33.90
2023-05-20T03:37:37.097Z,32.58
2023-05-20T03:40:13.379Z,34.93
2023-05-20T03:42:46.285Z,35.63
2023-05-20T03:45:19.670Z,43.03
2023-05-20T03:48:08.334Z,42.45
2023-05-20T03:50:41.275Z,41.47
2023-05-20T03:53:13.409Z,47.10
2023-05-20T03:55:46.764Z,48.58
2023-05-20T03:58:22.365Z,42.25
2023-05-20T04:00:56.040Z,62.22
2023-05-20T04:03:29.435Z,37.67
2023-05-20T04:06:01.646Z,46.42
2023-05-20T04:08:36.739Z,46.25
2023-05-20T04:11:08.972Z,45.05
2023-05-20T04:13:42.109Z,46.75
2023-05-20T04:16:15.209Z,45.63
2023-05-20T04:18:48.612Z,49.92
2023-05-20T04:21:21.016Z,46.53
2023-05-20T04:23:53.920Z,55.63
2023-05-20T04:26:27.564Z,45.42
2023-05-20T04:29:01.884Z,51.28
2023-05-20T04:31:34.083Z,54.63
2023-05-20T04:34:06.297Z,51.00
2023-05-20T04:36:38.658Z,47.80
2023-05-20T04:39:10.988Z,59.80
2023-05-20T04:41:43.497Z,41.97
2023-05-20T04:44:16.109Z,37.65
2023-05-20T04:46:48.489Z,47.05
2023-05-20T04:49:20.677Z,37.83
2023-05-20T04:51:53.272Z,37.00
2023-05-20T04:54:25.434Z,43.15
2023-05-20T04:56:57.881Z,42.88
2023-05-20T04:59:30.037Z,49.30
2023-05-20T05:02:02.305Z,49.15
2023-05-20T05:04:34.500Z,50.78
2023-05-20T05:07:06.924Z,54.53
2023-05-20T05:09:39.291Z,54.60
2023-05-20T05:12:11.396Z,55.03
2023-05-20T05:14:44.341Z,53.33
2023-05-20T05:17:16.457Z,55.25
2023-05-20T05:19:48.751Z,57.67
2023-05-20T05:22:21.076Z,54.80
2023-05-20T05:27:28.346Z,59.97
2023-05-20T05:30:00.679Z,54.53
2023-05-20T05:32:34.517Z,59.60
2023-05-20T05:35:08.271Z,54.73
2023-05-20T05:37:40.712Z,59.72
2023-05-20T05:40:14.001Z,49.22
2023-05-20T05:42:46.296Z,50.75
2023-05-20T05:45:18.542Z,50.45
2023-05-20T05:47:50.938Z,52.30
2023-05-20T05:50:23.522Z,51.60
2023-05-20T05:52:56.112Z,49.00
2023-05-20T05:55:28.961Z,51.93
2023-05-20T05:58:02.113Z,53.15
2023-05-20T06:00:35.606Z,49.65
2023-05-20T06:03:07.879Z,46.72
2023-05-20T06:05:46.557Z,43.50
2023-05-20T06:08:18.839Z,50.95
2023-05-20T06:10:51.240Z,55.42
2023-05-20T06:13:24.510Z,46.78
2023-05-20T06:15:56.879Z,39.63
2023-05-20T06:18:31.268Z,40.95
2023-05-20T06:21:07.831Z,39.10
2023-05-20T06:23:40.165Z,38.13
2023-05-20T06:26:16.188Z,42.80
2023-05-20T06:28:48.470Z,40.33
2023-05-20T06:31:20.773Z,38.55
2023-05-20T06:33:53.638Z,37.25
2023-05-20T06:36:27.229Z,38.13
2023-05-20T06:38:59.754Z,35.30
2023-05-20T06:41:31.888Z,36.17
2023-05-20T06:44:13.181Z,36.88
2023-05-20T06:47:04.207Z,35.78
2023-05-20T06:49:37.435Z,34.72
2023-05-20T06:52:09.661Z,32.55
2023-05-20T06:54:41.991Z,34.83
2023-05-20T06:57:16.258Z,39.22
2023-05-20T06:59:48.441Z,42.92
2023-05-20T07:02:22.486Z,43.85
2023-05-20T07:04:54.858Z,44.10
2023-05-20T07:07:27.034Z,41.42
2023-05-20T07:09:59.589Z,44.45
2023-05-20T07:12:33.426Z,42.67
2023-05-20T07:15:07.916Z,40.15
2023-05-20T07:17:41.059Z,37.17
2023-05-20T07:20:13.499Z,40.28
2023-05-20T07:22:46.090Z,40.22
2023-05-20T07:25:26.661Z,34.55
2023-05-20T07:28:00.689Z,35.78
2023-05-20T07:30:32.886Z,33.72
2023-05-20T07:33:19.494Z,33.95
2023-05-20T07:35:54.748Z,35.42
2023-05-20T07:38:28.737Z,28.27
2023-05-20T07:41:05.402Z,33.70
2023-05-20T07:43:38.058Z,30.40
2023-05-20T07:46:10.996Z,27.02
2023-05-20T07:48:43.942Z,29.48
2023-05-20T07:51:16.725Z,28.35
2023-05-20T07:53:49.496Z,28.75
2023-05-20T07:56:22.294Z,24.48
2023-05-20T07:58:59.540Z,28.85
2023-05-20T08:01:36.284Z,27.15
2023-05-20T08:06:45.269Z,23.73
2023-05-20T08:09:25.643Z,25.90
2023-05-20T08:12:00.902Z,27.42
2023-05-20T08:14:33.599Z,23.98
2023-05-20T08:17:06.308Z,23.33
2023-05-20T08:19:38.653Z,22.30
2023-05-20T08:22:13.198Z,23.23
2023-05-20T08:24:46.771Z,25.52
2023-05-20T08:27:18.999Z,23.83
2023-05-20T08:29:53.901Z,20.83
2023-05-20T08:32:26.782Z,20.75
2023-05-20T08:35:02.126Z,23.52
2023-05-20T08:37:34.776Z,22.80
2023-05-20T08:40:10.463Z,17.40
2023-05-20T08:42:44.581Z,17.25
2023-05-20T08:45:21.002Z,16.92
2023-05-20T08:47:55.784Z,15.48
2023-05-20T08:50:28.047Z,15.77
2023-05-20T08:53:02.048Z,16.10
2023-05-20T08:55:40.214Z,15.52
2023-05-20T08:58:12.630Z,12.77
2023-05-20T09:00:45.200Z,13.00
2023-05-20T09:03:18.173Z,10.88
2023-05-20T09:05:50.454Z,12.32
2023-05-20T09:08:27.138Z,12.18
2023-05-20T09:10:59.383Z,13.20
2023-05-20T09:13:34.793Z,13.18
2023-05-20T09:16:07.135Z,12.68
2023-05-20T09:18:40.551Z,10.27
2023-05-20T09:21:12.993Z,12.90
2023-05-20T09:23:49.497Z,10.90
2023-05-20T09:26:22.349Z,12.93
2023-05-20T09:28:57.273Z,11.05
2023-05-20T09:31:31.783Z,11.57
2023-05-20T09:34:04.034Z,10.65
2023-05-20T09:36:36.656Z,10.88
2023-05-20T09:39:14.060Z,10.77
2023-05-20T09:41:56.832Z,9.77
2023-05-20T09:44:29.840Z,8.75
2023-05-20T09:47:03.261Z,11.27
2023-05-20T09:49:37.684Z,9.00
2023-05-20T09:52:10.938Z,7.75
2023-05-20T09:54:44.617Z,10.73
2023-05-20T09:57:16.816Z,7.53
2023-05-20T09:59:51.522Z,8.13
2023-05-20T10:02:23.806Z,11.00
2023-05-20T10:04:57.931Z,11.35
2023-05-20T10:08:03.167Z,5.53
2023-05-20T10:10:41.521Z,6.05
2023-05-20T10:13:41.752Z,7.95
2023-05-20T10:16:59.140Z,6.72
2023-05-20T10:19:34.215Z,11.95
2023-05-20T10:22:12.081Z,9.25
2023-05-20T10:24:45.344Z,7.88
2023-05-20T10:27:18.676Z,7.53
2023-05-20T10:29:58.125Z,11.70
2023-05-20T10:32:32.633Z,6.50
2023-05-20T10:35:10.326Z,8.02
2023-05-20T10:37:46.482Z,7.65
2023-05-20T10:40:20.359Z,9.02
2023-05-20T10:42:52.908Z,6.05
2023-05-20T10:45:27.790Z,9.27
2023-05-20T10:48:00.342Z,7.10
2023-05-20T10:50:37.532Z,8.63
2023-05-20T10:53:29.448Z,7.80
2023-05-20T10:56:06.416Z,8.43
2023-05-20T10:58:39.962Z,10.50
2023-05-20T11:01:14.331Z,5.78
2023-05-20T11:03:49.824Z,7.82
2023-05-20T11:06:28.488Z,6.63
2023-05-20T11:09:07.524Z,6.72
2023-05-20T11:11:39.706Z,6.85
2023-05-20T11:14:15.174Z,7.65
2023-05-20T11:16:51.457Z,8.63
2023-05-20T11:19:23.878Z,4.97
2023-05-20T11:21:56.561Z,6.28
2023-05-20T11:24:29.270Z,5.45
2023-05-20T11:27:02.546Z,5.45
2023-05-20T11:29:35.373Z,6.10
2023-05-20T11:32:08.562Z,4.72
2023-05-20T11:34:40.881Z,5.35
2023-05-20T11:37:14.011Z,4.53
2023-05-20T11:39:46.383Z,4.47
2023-05-20T11:42:18.519Z,5.82
2023-05-20T11:44:50.706Z,5.68
2023-05-20T11:47:29.015Z,4.97
2023-05-20T11:50:02.074Z,4.85
2023-05-20T11:52:35.150Z,4.82
2023-05-20T11:55:11.398Z,6.07
2023-05-20T11:57:44.007Z,7.85
2023-05-20T12:00:16.871Z,6.53
2023-05-20T12:02:49.162Z,5.55
2023-05-20T12:05:21.478Z,5.82
2023-05-20T12:07:54.990Z,4.65
2023-05-20T12:10:28.129Z,5.60
2023-05-20T12:13:01.598Z,4.95
2023-05-20T12:15:33.679Z,8.77
2023-05-20T12:18:05.943Z,5.88
2023-05-20T12:20:39.115Z,4.53
2023-05-20T12:23:11.439Z,5.80
2023-05-20T12:28:18.916Z,7.13
2023-05-20T12:30:51.105Z,8.32
2023-05-20T12:33:23.249Z,6.30
2023-05-20T12:35:55.480Z,6.50
2023-05-20T12:38:28.248Z,7.18
2023-05-20T12:41:00.869Z,9.48
2023-05-20T12:43:34.980Z,10.50
2023-05-20T12:46:08.616Z,10.65
2023-05-20T12:48:42.658Z,9.18
2023-05-20T12:51:15.373Z,7.20
2023-05-20T12:53:47.442Z,10.07
2023-05-20T12:56:20.179Z,11.77
2023-05-20T12:58:52.295Z,8.27
2023-05-20T13:01:24.691Z,8.07
2023-05-20T13:03:56.954Z,10.87
2023-05-20T13:06:29.049Z,12.13
2023-05-20T13:09:01.340Z,12.10
2023-05-20T13:11:34.153Z,9.45
2023-05-20T13:14:06.340Z,10.52
2023-05-20T13:16:39.364Z,13.02
2023-05-20T13:19:11.934Z,11.00
2023-05-20T13:21:44.698Z,12.75
2023-05-20T13:24:19.128Z,10.20
2023-05-20T13:26:56.139Z,11.23
2023-05-20T13:29:32.301Z,10.27
2023-05-20T13:32:05.173Z,10.90
2023-05-20T13:34:38.860Z,13.13
2023-05-20T13:37:11.912Z,10.90
2023-05-20T13:39:44.153Z,8.85
2023-05-20T13:42:18.733Z,10.95
2023-05-20T13:44:57.477Z,14.88
2023-05-20T13:47:30.537Z,13.15
2023-05-20T13:50:03.487Z,12.77
2023-05-20T13:52:36.613Z,12.23
2023-05-20T13:55:09.224Z,10.70
2023-05-20T13:57:42.250Z,11.77
2023-05-20T14:00:15.003Z,10.05
2023-05-20T14:02:47.790Z,9.25
2023-05-20T14:05:20.416Z,16.65
2023-05-20T14:07:53.036Z,14.98
2023-05-20T14:10:25.157Z,10.10
2023-05-20T14:13:02.359Z,13.23
2023-05-20T14:15:35.038Z,17.00
2023-05-20T14:18:07.671Z,12.97
2023-05-20T14:20:39.948Z,15.10
2023-05-20T14:23:13.762Z,12.43
2023-05-20T14:25:46.237Z,16.13
2023-05-20T14:28:18.394Z,14.07
2023-05-20T14:30:50.720Z,11.52
2023-05-20T14:33:22.899Z,14.02
2023-05-20T14:35:55.776Z,12.18
2023-05-20T14:38:29.100Z,11.13
2023-05-20T14:43:33.411Z,12.63
2023-05-20T14:46:06.199Z,17.58
2023-05-20T14:48:38.738Z,14.80
2023-05-20T14:51:12.453Z,15.43
2023-05-20T14:53:44.777Z,20.27
2023-05-20T14:56:16.903Z,15.73
2023-05-20T14:58:49.182Z,14.18
2023-05-20T15:01:21.349Z,16.35
2023-05-20T15:03:54.130Z,14.60
2023-05-20T15:06:26.599Z,13.18
2023-05-20T15:08:58.922Z,47.43
2023-05-20T15:11:31.063Z,27.58
2023-05-20T15:14:03.692Z,54.40
2023-05-20T15:16:36.493Z,12.82
2023-05-20T15:19:08.634Z,12.85
2023-05-20T15:21:40.991Z,13.00
2023-05-20T15:24:13.553Z,13.93
2023-05-20T15:26:45.940Z,17.83
2023-05-20T15:29:18.609Z,17.25
2023-05-20T15:31:50.788Z,14.05
2023-05-20T15:34:22.981Z,12.30
2023-05-20T15:36:55.091Z,13.68
2023-05-20T15:39:28.558Z,11.52
2023-05-20T15:42:02.363Z,14.07
2023-05-20T15:44:36.275Z,11.43
2023-05-20T15:47:08.486Z,11.13
2023-05-20T15:49:40.918Z,17.25
2023-05-20T15:52:14.223Z,19.10
2023-05-20T15:54:47.056Z,14.35
2023-05-20T15:57:19.310Z,15.05
2023-05-20T15:59:52.295Z,14.00
2023-05-20T16:02:25.180Z,24.10
2023-05-20T16:04:57.454Z,10.40
2023-05-20T16:07:30.636Z,13.70
2023-05-20T16:10:03.358Z,10.20
2023-05-20T16:12:35.912Z,14.18
2023-05-20T16:15:10.219Z,17.53
2023-05-20T16:17:42.295Z,13.57
2023-05-20T16:20:14.968Z,10.73
2023-05-20T16:22:47.363Z,14.30
2023-05-20T16:25:19.437Z,13.48
2023-05-20T16:27:51.750Z,14.75
2023-05-20T16:30:23.976Z,12.88
2023-05-20T16:32:56.538Z,13.98
2023-05-20T16:35:28.952Z,12.55
2023-05-20T16:38:01.599Z,11.18
2023-05-20T16:40:34.132Z,12.07
2023-05-20T16:43:06.474Z,14.98
2023-05-20T16:45:39.301Z,14.63
2023-05-20T16:48:11.523Z,18.00
2023-05-20T16:50:44.384Z,12.27
2023-05-20T16:53:16.927Z,12.98
2023-05-20T16:55:49.452Z,12.90
2023-05-20T16:58:21.721Z,13.68
2023-05-20T17:00:55.233Z,15.27
2023-05-20T17:03:27.923Z,16.63
2023-05-20T17:06:00.187Z,15.70
2023-05-20T17:08:32.360Z,14.02
2023-05-20T17:11:04.459Z,18.00
2023-05-20T17:13:36.863Z,19.02
2023-05-20T17:16:10.012Z,20.63
2023-05-20T17:21:17.184Z,16.40
2023-05-20T17:23:49.592Z,15.07
2023-05-20T17:26:22.663Z,13.73
2023-05-20T17:28:55.091Z,13.77
2023-05-20T17:31:27.210Z,15.07
2023-05-20T17:33:59.367Z,16.42
2023-05-20T17:36:32.533Z,13.82
2023-05-20T17:39:04.870Z,14.05
2023-05-20T17:41:37.632Z,13.48
2023-05-20T17:44:09.728Z,14.05
2023-05-20T17:46:42.009Z,14.30
2023-05-20T17:49:14.243Z,15.98
2023-05-20T17:51:46.686Z,17.05
2023-05-20T17:54:18.964Z,14.70
2023-05-20T17:56:51.367Z,17.33
2023-05-20T17:59:23.534Z,17.60
2023-05-20T18:01:55.914Z,14.50
2023-05-20T18:04:28.625Z,17.23
2023-05-20T18:07:01.130Z,14.55
2023-05-20T18:09:33.411Z,15.98
2023-05-20T18:12:07.174Z,16.00
2023-05-20T18:14:39.341Z,23.65
2023-05-20T18:17:12.536Z,14.57
2023-05-20T18:19:44.627Z,19.50
2023-05-20T18:22:17.188Z,15.38
2023-05-20T18:24:49.467Z,16.75
2023-05-20T18:27:21.691Z,17.70
2023-05-20T18:29:53.911Z,17.58
2023-05-20T18:32:28.661Z,21.17
2023-05-20T18:35:01.023Z,14.82
2023-05-20T18:37:33.398Z,14.35
2023-05-20T18:40:06.954Z,16.67
2023-05-20T18:42:39.067Z,19.35
2023-05-20T18:45:12.142Z,14.85
2023-05-20T18:47:44.645Z,16.88
2023-05-20T18:50:17.090Z,14.38
2023-05-20T18:52:49.391Z,17.90
2023-05-20T18:55:22.017Z,16.55
2023-05-20T18:57:54.278Z,17.10
2023-05-20T19:00:26.563Z,21.58
2023-05-20T19:02:59.156Z,17.75
2023-05-20T19:05:31.460Z,18.40
2023-05-20T19:08:06.039Z,18.77
2023-05-20T19:10:38.583Z,17.15
2023-05-20T19:13:14.140Z,17.27
2023-05-20T19:15:46.397Z,17.23
2023-05-20T19:18:18.665Z,20.52
2023-05-20T19:20:52.689Z,17.65
2023-05-20T19:23:24.972Z,15.10
2023-05-20T19:25:57.092Z,20.83
2023-05-20T19:28:29.479Z,17.75
2023-05-20T19:31:02.567Z,19.73
2023-05-20T19:33:34.848Z,22.98
2023-05-20T19:36:07.209Z,18.13
2023-05-20T19:38:39.479Z,21.40
2023-05-20T19:41:13.041Z,21.05
2023-05-20T19:46:17.365Z,22.60
2023-05-20T19:48:49.670Z,19.15
2023-05-20T19:51:21.839Z,17.48
2023-05-20T19:53:54.407Z,18.08
2023-05-20T19:56:26.601Z,22.48
2023-05-20T19:59:01.941Z,18.83
2023-05-20T20:01:34.188Z,18.30
2023-05-20T20:04:06.455Z,18.17
2023-05-20T20:06:38.709Z,17.83
2023-05-20T20:09:11.123Z,15.82
2023-05-20T20:11:43.609Z,20.38
2023-05-20T20:14:16.589Z,16.50
2023-05-20T20:16:49.571Z,21.10
2023-05-20T20:19:23.015Z,19.42
2023-05-20T20:24:30.751Z,17.08
2023-05-20T20:27:04.799Z,18.40
2023-05-20T20:29:37.251Z,21.20
2023-05-20T20:32:09.678Z,17.75
2023-05-20T20:34:42.809Z,22.17
2023-05-20T20:37:15.687Z,18.40
2023-05-20T20:39:48.452Z,18.88
2023-05-20T20:42:23.157Z,21.53
2023-05-20T20:44:56.060Z,16.58
2023-05-20T20:47:29.548Z,20.27
2023-05-20T20:50:03.947Z,17.70
2023-05-20T20:52:36.593Z,16.88
2023-05-20T20:55:10.400Z,17.47
2023-05-20T20:57:42.479Z,18.00
2023-05-20T21:00:20.813Z,20.30
2023-05-20T21:02:53.914Z,19.60
2023-05-20T21:05:26.752Z,17.73
2023-05-20T21:07:59.419Z,16.63
2023-05-20T21:10:31.759Z,17.98
2023-05-20T21:13:04.070Z,17.65
2023-05-20T21:15:36.589Z,20.73
2023-05-20T21:18:08.998Z,20.95
2023-05-20T21:20:41.189Z,18.85
2023-05-20T21:23:13.411Z,16.67
2023-05-20T21:25:45.870Z,16.35
2023-05-20T21:28:18.626Z,20.17
2023-05-20T21:30:51.224Z,18.73
2023-05-20T21:33:23.526Z,26.93
2023-05-20T21:35:55.872Z,19.77
2023-05-20T21:38:28.016Z,17.92
2023-05-20T21:41:01.456Z,21.60
2023-05-20T21:43:33.628Z,19.95
2023-05-20T21:46:08.334Z,21.40
2023-05-20T21:48:40.580Z,20.33
2023-05-20T21:51:12.734Z,21.63
2023-05-20T21:53:45.139Z,19.58
2023-05-20T21:56:17.285Z,24.35
2023-05-20T21:58:49.555Z,17.75
2023-05-20T22:01:21.992Z,17.80
2023-05-20T22:03:56.788Z,20.23
2023-05-20T22:06:29.011Z,22.55
2023-05-20T22:09:01.812Z,19.17
2023-05-20T22:11:34.268Z,18.05
2023-05-20T22:14:06.369Z,20.27
2023-05-20T22:16:39.093Z,18.45
2023-05-20T22:19:11.259Z,19.27
2023-05-20T22:21:50.274Z,19.65
2023-05-20T22:24:23.351Z,19.52
2023-05-20T22:26:55.623Z,18.10
2023-05-20T22:29:27.858Z,18.20
2023-05-20T22:32:00.088Z,19.40
2023-05-20T22:34:32.769Z,17.88
2023-05-20T22:37:07.315Z,21.95
2023-05-20T22:39:39.657Z,17.90
2023-05-20T22:42:12.131Z,19.55
2023-05-20T22:44:44.419Z,18.25
2023-05-20T22:47:16.765Z,18.10
2023-05-20T22:49:49.420Z,23.05
2023-05-20T22:52:25.423Z,21.65
2023-05-20T22:54:58.752Z,19.08
2023-05-20T22:57:30.943Z,17.00
2023-05-20T23:00:05.036Z,17.48
2023-05-20T23:02:37.274Z,19.15
2023-05-20T23:05:09.906Z,22.73
2023-05-20T23:07:42.281Z,23.02
2023-05-20T23:10:14.624Z,16.88
2023-05-20T23:12:47.156Z,17.63
2023-05-20T23:15:19.503Z,19.23
2023-05-20T23:17:52.232Z,16.38
2023-05-20T23:20:25.039Z,15.23
2023-05-20T23:22:57.470Z,20.60
2023-05-20T23:25:30.192Z,19.08
2023-05-20T23:28:02.285Z,17.73
2023-05-20T23:30:36.199Z,15.90
2023-05-20T23:33:08.839Z,18.38
2023-05-20T23:35:41.475Z,18.67
2023-05-20T23:38:13.530Z,16.02
2023-05-20T23:40:46.291Z,16.70
2023-05-20T23:43:18.699Z,17.00
2023-05-20T23:45:51.095Z,15.80
2023-05-20T23:48:26.552Z,16.83
2023-05-20T23:50:58.744Z,14.65
2023-05-20T23:53:31.122Z,14.88
2023-05-20T23:56:03.661Z,17.45
2023-05-20T23:58:36.907Z,18.58
